createdAt,value
2022-08-05T00:00:24.164Z,47.47
2022-08-05T00:02:55.808Z,47.60
2022-08-05T00:06:02.866Z,48.14
2022-08-05T00:08:32.761Z,47.74
2022-08-05T00:11:01.730Z,49.24
2022-08-05T00:13:39.463Z,47.43
2022-08-05T00:16:12.375Z,46.22
2022-08-05T00:18:44.224Z,50.38
2022-08-05T00:21:14.472Z,49.21
2022-08-05T00:23:45.901Z,51.02
2022-08-05T00:26:16.648Z,50.25
2022-08-05T00:28:45.792Z,51.37
2022-08-05T00:31:14.577Z,51.56
2022-08-05T00:34:56.277Z,50.89
2022-08-05T00:37:11.701Z,51.50
2022-08-05T00:39:20.615Z,51.88
2022-08-05T00:41:55.774Z,52.84
2022-08-05T00:44:30.841Z,49.33
2022-08-05T00:47:01.862Z,48.98
2022-08-05T00:49:44.359Z,49.83
2022-08-05T00:52:28.186Z,50.20
2022-08-05T00:54:57.247Z,49.21
2022-08-05T00:57:38.135Z,49.06
2022-08-05T01:00:15.256Z,48.84
2022-08-05T01:02:45.277Z,50.66
2022-08-05T01:05:14.779Z,52.19
2022-08-05T01:08:30.337Z,51.39
2022-08-05T01:10:36.654Z,50.98
2022-08-05T01:13:13.284Z,51.03
2022-08-05T01:15:58.194Z,52.38
2022-08-05T01:18:35.192Z,52.53
2022-08-05T01:21:12.423Z,52.42
2022-08-05T01:24:14.324Z,53.29
2022-08-05T01:27:00.723Z,54.12
2022-08-05T01:29:54.548Z,54.74
2022-08-05T01:32:27.706Z,55.65
2022-08-05T01:35:00.565Z,55.48
2022-08-05T01:37:36.583Z,55.07
2022-08-05T01:40:13.560Z,56.66
2022-08-05T01:42:47.011Z,57.45
2022-08-05T01:45:18.020Z,57.16
2022-08-05T01:47:54.597Z,57.37
2022-08-05T01:50:29.686Z,58.21
2022-08-05T01:53:02.521Z,59.13
2022-08-05T01:55:36.128Z,59.75
2022-08-05T01:58:29.885Z,60.42
2022-08-05T02:00:59.321Z,60.90
2022-08-05T02:03:34.284Z,62.35
2022-08-05T02:06:23.978Z,61.20
2022-08-05T02:08:55.189Z,61.23
2022-08-05T02:11:32.836Z,62.00
2022-08-05T02:14:06.365Z,61.85
2022-08-05T02:16:44.055Z,62.08
2022-08-05T02:19:19.894Z,62.96
2022-08-05T02:21:55.431Z,62.64
2022-08-05T02:24:28.772Z,62.16
2022-08-05T02:27:10.177Z,62.97
2022-08-05T02:29:58.388Z,61.74
2022-08-05T02:32:31.840Z,61.95
2022-08-05T02:35:13.477Z,61.66
2022-08-05T02:37:47.896Z,62.12
2022-08-05T02:40:24.339Z,62.78
2022-08-05T02:42:55.192Z,63.12
2022-08-05T02:45:25.472Z,63.60
2022-08-05T02:48:07.033Z,65.11
2022-08-05T02:50:43.852Z,64.82
2022-08-05T02:53:19.075Z,65.44
2022-08-05T02:55:54.326Z,65.66
2022-08-05T02:58:30.284Z,65.94
2022-08-05T03:01:02.531Z,65.79
2022-08-05T03:04:03.412Z,65.63
2022-08-05T03:06:56.563Z,65.72
2022-08-05T03:09:17.968Z,66.23
2022-08-05T03:12:05.576Z,65.90
2022-08-05T03:14:33.721Z,66.32
2022-08-05T03:17:05.057Z,66.81
2022-08-05T03:19:38.222Z,67.60
2022-08-05T03:22:16.740Z,67.96
2022-08-05T03:24:51.059Z,68.27
2022-08-05T03:27:20.774Z,68.83
2022-08-05T03:30:07.185Z,68.76
2022-08-05T03:32:37.912Z,69.33
2022-08-05T03:35:09.365Z,70.49
2022-08-05T03:37:45.855Z,71.14
2022-08-05T03:40:24.180Z,72.45
2022-08-05T03:43:01.251Z,73.15
2022-08-05T03:45:29.744Z,72.91
2022-08-05T03:48:22.705Z,73.28
2022-08-05T03:50:59.192Z,73.43
2022-08-05T03:56:04.906Z,72.45
2022-08-05T03:56:49.970Z,71.18
2022-08-05T03:59:24.826Z,71.48
2022-08-05T04:01:58.890Z,73.39
2022-08-05T04:04:29.305Z,73.03
2022-08-05T04:07:00.252Z,73.00
2022-08-05T04:09:30.995Z,70.84
2022-08-05T04:12:05.169Z,64.90
2022-08-05T04:14:52.094Z,61.39
2022-08-05T04:17:20.299Z,60.39
2022-08-05T04:19:54.368Z,60.53
2022-08-05T04:22:26.687Z,58.49
2022-08-05T04:24:54.791Z,56.41
2022-08-05T04:27:41.943Z,54.86
2022-08-05T04:30:12.592Z,54.16
2022-08-05T04:32:42.437Z,56.02
2022-08-05T04:35:17.346Z,58.42
2022-08-05T04:38:02.127Z,58.81
2022-08-05T04:40:35.885Z,56.72
2022-08-05T04:43:06.192Z,56.76
2022-08-05T04:45:48.941Z,56.37
2022-08-05T04:48:27.543Z,54.87
2022-08-05T04:51:02.862Z,52.54
2022-08-05T04:53:39.844Z,51.94
2022-08-05T04:56:33.214Z,49.14
2022-08-05T04:58:57.043Z,45.47
2022-08-05T05:02:08.386Z,44.52
2022-08-05T05:04:13.334Z,43.00
2022-08-05T05:06:44.866Z,41.02
2022-08-05T05:09:18.635Z,41.90
2022-08-05T05:11:53.253Z,40.35
2022-08-05T05:14:27.848Z,41.87
2022-08-05T05:17:00.501Z,42.27
2022-08-05T05:19:37.249Z,40.18
2022-08-05T05:22:24.707Z,38.18
2022-08-05T05:24:59.890Z,43.94
2022-08-05T05:27:44.434Z,42.14
2022-08-05T05:30:15.589Z,43.39
2022-08-05T05:32:56.867Z,38.12
2022-08-05T05:35:29.115Z,36.37
2022-08-05T05:38:05.514Z,35.80
2022-08-05T05:40:35.537Z,34.70
2022-08-05T05:43:04.658Z,34.93
2022-08-05T05:45:36.895Z,35.72
2022-08-05T05:48:16.346Z,33.71
2022-08-05T05:50:44.666Z,33.49
2022-08-05T05:53:21.473Z,34.21
2022-08-05T05:56:00.685Z,33.96
2022-08-05T05:58:32.245Z,32.79
2022-08-05T06:01:12.277Z,31.15
2022-08-05T06:04:00.684Z,30.42
2022-08-05T06:06:30.817Z,31.29
2022-08-05T06:08:59.600Z,30.63
2022-08-05T06:11:29.232Z,27.95
2022-08-05T06:13:57.940Z,26.96
2022-08-05T06:16:36.874Z,26.17
2022-08-05T06:19:07.854Z,26.32
2022-08-05T06:21:38.776Z,27.99
2022-08-05T06:24:12.212Z,26.53
2022-08-05T06:26:51.464Z,25.72
2022-08-05T06:29:43.225Z,26.13
2022-08-05T06:32:26.411Z,26.67
2022-08-05T06:34:58.681Z,25.31
2022-08-05T06:37:56.526Z,25.32
2022-08-05T06:40:18.213Z,25.78
2022-08-05T06:42:52.076Z,26.73
2022-08-05T06:45:44.649Z,25.80
2022-08-05T06:48:36.959Z,26.12
2022-08-05T06:50:58.693Z,25.91
2022-08-05T06:53:29.331Z,24.95
2022-08-05T06:55:59.361Z,25.13
2022-08-05T06:58:35.105Z,26.03
2022-08-05T07:01:07.161Z,25.63
2022-08-05T07:03:36.010Z,26.03
2022-08-05T07:06:14.144Z,25.48
2022-08-05T07:08:47.892Z,27.16
2022-08-05T07:11:22.235Z,28.45
2022-08-05T07:14:20.153Z,28.78
2022-08-05T07:17:59.723Z,28.94
2022-08-05T07:20:31.698Z,29.34
2022-08-05T07:22:30.047Z,30.15
2022-08-05T07:25:22.561Z,29.21
2022-08-05T07:27:57.421Z,28.55
2022-08-05T07:30:34.435Z,28.35
2022-08-05T07:33:08.818Z,28.44
2022-08-05T07:36:01.693Z,28.71
2022-08-05T07:38:34.439Z,29.34
2022-08-05T07:42:06.863Z,29.46
2022-08-05T07:43:56.599Z,29.43
2022-08-05T07:46:27.697Z,30.00
2022-08-05T07:49:04.339Z,28.75
2022-08-05T07:51:36.740Z,28.35
2022-08-05T07:54:08.554Z,28.78
2022-08-05T07:56:59.951Z,28.85
2022-08-05T07:59:38.109Z,28.58
2022-08-05T08:02:15.809Z,29.13
2022-08-05T08:04:46.888Z,29.00
2022-08-05T08:07:15.679Z,29.57
2022-08-05T08:09:44.300Z,29.59
2022-08-05T08:12:37.350Z,29.50
2022-08-05T08:15:03.642Z,29.70
2022-08-05T08:17:35.315Z,29.44
2022-08-05T08:20:21.167Z,29.18
2022-08-05T08:22:55.803Z,29.48
2022-08-05T08:25:27.092Z,29.57
2022-08-05T08:28:18.402Z,29.56
2022-08-05T08:30:49.948Z,29.05
2022-08-05T08:33:19.811Z,29.85
2022-08-05T08:35:53.929Z,29.72
2022-08-05T08:38:37.767Z,29.05
2022-08-05T08:41:08.680Z,29.21
2022-08-05T08:45:24.390Z,29.41
2022-08-05T08:46:29.045Z,30.06
2022-08-05T08:50:04.021Z,30.20
2022-08-05T08:52:04.013Z,30.09
2022-08-05T08:54:36.730Z,28.99
2022-08-05T08:57:11.615Z,29.19
2022-08-05T08:59:42.057Z,28.37
2022-08-05T09:02:17.844Z,28.34
2022-08-05T12:01:38.175Z,25.73
2022-08-05T12:04:06.869Z,25.30
2022-08-05T12:06:36.955Z,25.43
2022-08-05T12:09:20.243Z,24.86
2022-08-05T12:11:48.804Z,24.58
2022-08-05T12:14:19.069Z,24.59
2022-08-05T12:16:48.966Z,24.14
2022-08-05T12:20:17.024Z,23.92
2022-08-05T12:22:07.895Z,24.49
2022-08-05T12:24:43.722Z,23.41
2022-08-05T12:27:32.446Z,23.86
2022-08-05T12:30:03.534Z,23.95
2022-08-05T12:32:35.371Z,24.24
2022-08-05T12:35:07.804Z,23.86
2022-08-05T12:37:36.736Z,23.68
2022-08-05T12:40:11.318Z,23.96
2022-08-05T12:42:54.700Z,24.34
2022-08-05T12:45:22.876Z,24.23
2022-08-05T12:48:32.285Z,24.13
2022-08-05T12:52:10.950Z,24.32
2022-08-05T12:54:16.477Z,24.97
2022-08-05T12:56:51.047Z,24.42
2022-08-05T12:59:27.682Z,24.55
2022-08-05T13:02:10.848Z,24.55
2022-08-05T13:04:52.238Z,24.36
2022-08-05T13:07:55.826Z,24.24
2022-08-05T13:10:14.628Z,24.68
2022-08-05T13:12:51.333Z,24.14
2022-08-05T13:15:41.736Z,24.23
2022-08-05T13:18:19.867Z,23.94
2022-08-05T13:20:50.415Z,23.65
2022-08-05T13:23:22.899Z,24.05
2022-08-05T13:26:01.119Z,23.13
2022-08-05T13:28:32.074Z,23.72
2022-08-05T13:31:11.129Z,24.48
2022-08-05T13:34:21.627Z,23.60
2022-08-05T13:36:33.403Z,23.11
2022-08-05T13:39:02.711Z,24.12
2022-08-05T13:41:50.680Z,23.45
2022-08-05T13:44:18.788Z,23.66
2022-08-05T13:47:08.798Z,23.53
2022-08-05T13:49:35.594Z,23.93
2022-08-05T13:52:12.834Z,23.85
2022-08-05T13:54:41.573Z,23.26
2022-08-05T13:57:10.371Z,23.20
2022-08-05T13:59:57.258Z,23.19
2022-08-05T14:02:29.669Z,23.77
2022-08-05T14:05:15.472Z,22.73
2022-08-05T14:08:01.223Z,23.55
2022-08-05T14:10:35.537Z,23.22
2022-08-05T14:13:05.909Z,23.34
2022-08-05T14:16:07.706Z,24.13
2022-08-05T14:18:24.015Z,23.28
2022-08-05T14:20:54.607Z,23.49
2022-08-05T14:23:26.432Z,23.96
2022-08-05T14:25:58.629Z,24.01
2022-08-05T14:28:28.717Z,23.93
2022-08-05T14:30:57.141Z,23.63
2022-08-05T14:33:25.306Z,23.04
2022-08-05T14:35:54.057Z,23.57
2022-08-05T14:38:33.000Z,24.25
2022-08-05T14:41:07.679Z,23.55
2022-08-05T14:44:02.194Z,23.17
2022-08-05T14:46:28.291Z,23.08
2022-08-05T14:48:59.427Z,23.78
2022-08-05T14:51:30.766Z,23.88
2022-08-05T14:54:26.870Z,23.91
2022-08-05T14:56:49.580Z,23.52
2022-08-05T14:59:22.066Z,23.59
2022-08-05T15:01:50.415Z,23.64
2022-08-05T15:04:20.451Z,23.21
2022-08-05T15:06:50.276Z,22.57
2022-08-05T15:09:51.430Z,23.92
2022-08-05T15:12:16.335Z,23.43
2022-08-05T15:14:50.264Z,23.39
2022-08-05T15:17:44.709Z,23.25
2022-08-05T15:20:19.023Z,22.90
2022-08-05T15:22:54.953Z,23.16
2022-08-05T15:25:41.226Z,23.37
2022-08-05T15:28:16.138Z,23.28
2022-08-05T15:30:45.803Z,23.41
2022-08-05T15:34:04.111Z,23.39
2022-08-05T15:36:04.647Z,23.42
2022-08-05T15:38:40.931Z,23.45
2022-08-05T15:41:23.949Z,23.74
2022-08-05T15:43:54.625Z,23.43
2022-08-05T15:46:24.108Z,23.74
2022-08-05T15:49:01.062Z,23.50
2022-08-05T15:52:09.909Z,23.35
2022-08-05T15:54:34.349Z,22.97
2022-08-05T15:57:04.176Z,23.45
2022-08-05T15:59:38.145Z,23.72
2022-08-05T16:02:19.576Z,23.61
2022-08-05T16:04:53.805Z,23.71
2022-08-05T16:07:22.765Z,23.47
2022-08-05T16:09:51.788Z,23.55
2022-08-05T16:12:23.866Z,23.35
2022-08-05T16:14:52.185Z,23.55
2022-08-05T16:17:20.408Z,23.45
2022-08-05T16:20:04.552Z,23.94
2022-08-05T16:22:34.750Z,23.57
2022-08-05T16:25:08.009Z,23.75
2022-08-05T16:28:00.832Z,23.87
2022-08-05T16:30:30.737Z,23.79
2022-08-05T16:33:00.865Z,24.09
2022-08-05T16:35:30.827Z,23.85
2022-08-05T16:38:14.956Z,24.06
2022-08-05T16:40:55.049Z,23.94
2022-08-05T16:43:32.208Z,23.85
2022-08-05T16:46:03.790Z,24.25
2022-08-05T16:48:37.827Z,23.63
2022-08-05T16:51:42.593Z,23.84
2022-08-05T16:54:27.489Z,23.69
2022-08-05T16:57:39.921Z,24.35
2022-08-05T17:00:34.010Z,23.84
2022-08-05T17:03:02.884Z,24.31
2022-08-05T17:05:32.398Z,24.54
2022-08-05T17:08:05.724Z,24.66
2022-08-05T17:10:36.218Z,24.62
2022-08-05T17:13:05.706Z,24.63
2022-08-05T17:15:47.847Z,24.63
2022-08-05T17:18:17.211Z,25.04
2022-08-05T17:20:47.084Z,24.87
2022-08-05T17:24:03.383Z,25.16
2022-08-05T17:26:03.224Z,24.98
2022-08-05T17:28:31.333Z,25.34
2022-08-05T17:31:00.770Z,25.17
2022-08-05T17:33:39.034Z,25.51
2022-08-05T17:36:33.748Z,25.66
2022-08-05T17:39:03.948Z,25.61
2022-08-05T17:42:19.136Z,25.54
2022-08-05T17:44:26.747Z,26.06
2022-08-05T17:47:02.075Z,26.22
2022-08-05T17:50:00.002Z,26.11
2022-08-05T17:52:18.706Z,26.09
2022-08-05T17:54:46.775Z,26.06
2022-08-05T17:57:15.567Z,26.36
2022-08-05T17:59:43.910Z,26.41
2022-08-05T18:02:17.505Z,26.50
2022-08-05T18:04:53.216Z,26.86
2022-08-05T18:07:21.648Z,26.82
2022-08-05T18:09:59.709Z,27.01
2022-08-05T18:12:29.149Z,27.50
2022-08-05T18:14:57.264Z,27.61
2022-08-05T18:18:01.359Z,28.09
2022-08-05T18:20:16.473Z,28.18
2022-08-05T18:22:46.121Z,28.22
2022-08-05T18:25:22.446Z,28.58
2022-08-05T18:27:53.161Z,30.03
2022-08-05T18:30:21.696Z,29.43
2022-08-05T18:33:00.931Z,29.88
2022-08-05T18:35:49.654Z,30.50
2022-08-05T18:38:19.529Z,30.99
2022-08-05T18:41:56.736Z,31.72
2022-08-05T18:43:43.266Z,31.13
2022-08-05T18:46:19.502Z,30.86
2022-08-05T18:48:52.100Z,32.45
2022-08-05T18:52:06.402Z,32.25
2022-08-05T18:54:28.395Z,32.64
2022-08-05T18:57:00.923Z,32.89
2022-08-05T18:59:43.778Z,33.07
2022-08-05T19:02:28.573Z,32.89
2022-08-05T19:05:02.801Z,33.43
2022-08-05T19:07:50.098Z,33.58
2022-08-05T19:10:28.542Z,33.28
2022-08-05T19:12:57.209Z,34.10
2022-08-05T19:15:59.271Z,33.71
2022-08-05T19:18:22.293Z,34.01
2022-08-05T19:20:53.152Z,34.13
2022-08-05T19:24:04.059Z,34.55
2022-08-05T19:26:11.390Z,34.68
2022-08-05T19:28:42.203Z,35.08
2022-08-05T19:31:12.944Z,35.17
2022-08-05T19:33:47.907Z,33.99
2022-08-05T19:36:25.687Z,34.19
2022-08-05T19:38:54.872Z,33.95
2022-08-05T19:41:34.702Z,34.44
2022-08-05T19:44:15.399Z,34.31
2022-08-05T19:46:44.136Z,35.34
2022-08-05T19:49:16.901Z,35.00
2022-08-05T19:52:08.606Z,35.49
2022-08-05T19:54:37.028Z,34.71
2022-08-05T19:57:09.326Z,34.31
2022-08-05T19:59:59.409Z,34.62
2022-08-05T20:02:30.324Z,34.35
2022-08-05T20:05:00.151Z,34.37
2022-08-05T20:07:46.514Z,33.83
2022-08-05T20:10:19.386Z,34.72
2022-08-05T20:12:50.519Z,35.10
2022-08-05T20:15:23.202Z,35.88
2022-08-05T20:18:10.671Z,36.30
2022-08-05T20:20:57.555Z,36.42
2022-08-05T20:23:39.181Z,37.50
2022-08-05T20:26:19.177Z,37.90
2022-08-05T20:28:50.830Z,37.20
2022-08-05T20:31:21.770Z,37.32
2022-08-05T20:33:56.776Z,38.10
2022-08-05T20:36:25.934Z,37.86
2022-08-05T20:38:58.009Z,38.74
2022-08-05T20:41:44.160Z,38.16
2022-08-05T20:44:18.721Z,38.86
2022-08-05T20:46:57.202Z,39.27
2022-08-05T20:49:26.115Z,39.33
2022-08-05T20:51:54.539Z,39.42
2022-08-05T20:54:25.324Z,38.95
2022-08-05T20:56:53.458Z,39.47
2022-08-05T20:59:26.763Z,39.86
2022-08-05T21:01:57.908Z,40.98
2022-08-05T21:04:27.107Z,41.38
2022-08-05T21:06:55.888Z,41.86
2022-08-05T21:09:25.470Z,41.02
2022-08-05T21:12:09.093Z,40.83
2022-08-05T21:14:39.662Z,41.04
2022-08-05T21:17:07.815Z,41.81
2022-08-05T21:19:47.207Z,42.34
2022-08-05T21:22:21.873Z,42.08
2022-08-05T21:24:54.328Z,41.96
2022-08-05T21:27:24.643Z,41.71
2022-08-05T21:29:53.977Z,41.77
2022-08-05T21:32:24.665Z,41.69
2022-08-05T21:35:18.148Z,42.47
2022-08-05T21:37:47.191Z,43.05
2022-08-05T21:40:23.697Z,44.46
2022-08-05T21:42:53.490Z,43.78
2022-08-05T21:45:51.572Z,43.75
2022-08-05T21:48:10.681Z,43.90
2022-08-05T21:50:42.239Z,42.68
2022-08-05T21:53:24.844Z,44.49
2022-08-05T21:56:05.243Z,43.06
2022-08-05T21:58:42.218Z,42.62
2022-08-05T22:01:11.125Z,44.38
2022-08-05T22:03:53.566Z,44.32
2022-08-05T22:06:35.309Z,44.30
2022-08-05T22:09:14.850Z,43.06
2022-08-05T22:11:46.803Z,44.36
2022-08-05T22:14:33.349Z,44.40
2022-08-05T22:17:05.115Z,44.23
2022-08-05T22:20:00.767Z,45.54
2022-08-05T22:22:26.847Z,44.53
2022-08-05T22:25:18.049Z,45.72
2022-08-05T22:28:09.953Z,46.34
2022-08-05T22:30:55.286Z,47.47
2022-08-05T22:33:57.880Z,48.58
2022-08-05T22:36:15.220Z,47.33
2022-08-05T22:38:48.514Z,48.24
2022-08-05T22:42:04.894Z,48.02
2022-08-05T22:44:08.316Z,49.53
2022-08-05T22:46:39.757Z,51.41
2022-08-05T22:49:12.117Z,52.47
2022-08-05T22:52:04.874Z,53.23
2022-08-05T22:54:36.371Z,54.00
2022-08-05T22:57:05.630Z,54.43
2022-08-05T22:59:45.803Z,54.64
2022-08-05T23:02:18.312Z,55.67
2022-08-05T23:04:52.125Z,56.16
2022-08-05T23:07:22.342Z,56.74
2022-08-05T23:09:57.166Z,56.71
2022-08-05T23:12:32.634Z,57.57
2022-08-05T23:15:03.956Z,57.73
2022-08-05T23:18:01.671Z,56.17
2022-08-05T23:20:25.794Z,55.65
2022-08-05T23:22:55.734Z,56.43
2022-08-05T23:25:54.948Z,57.76
2022-08-05T23:28:13.064Z,57.66
2022-08-05T23:30:52.822Z,58.33
2022-08-05T23:33:26.276Z,60.40
2022-08-05T23:36:11.136Z,61.59
2022-08-05T23:38:43.673Z,59.63
2022-08-05T23:41:12.357Z,57.86
2022-08-05T23:44:05.821Z,56.83
2022-08-05T23:46:30.957Z,57.40
2022-08-05T23:48:59.608Z,56.51
2022-08-05T23:51:54.328Z,57.84
2022-08-05T23:54:25.220Z,58.58
2022-08-05T23:56:55.602Z,58.54
